NEW MELONES RESERVOIR (NML)

Elevation: 1135' · STANISLAUS R basin · Operator: US Bureau of Reclamation

Provisional data, subject to change.
Query executed Monday at 15:24:32   clock

Select a sensor type for a plot of data.
Note: Reservoir Flows are daily averages.

Earlier

Date RES ELE    STORAGE    RES CHG    TOC STO    ABV TOC    OUTFLOW    INFLOW    EVAP    FNF    RIV REL    PPT INC    SPILL    DIS PWR   
 FEET   AF   AF   AF   AF   CFS   CFS   CFS   CFS   CFS   INCHES   CFS   CFS  
08/28/2016 867.29 546500 50 2420000 -1873500 685 759 49 269 0 0.00 0 685
08/29/2016 867.24 546253 -247 2420000 -1873747 867 796 54 312 0 0.00 0 867
08/30/2016 867.15 545808 -445 2420000 -1874192 970 803 57 313 0 0.00 0 970
08/31/2016 866.87 544428 -1380 2420000 -1875572 1404 770 62 -- 0 0.00 0 1404
09/01/2016 866.68 543495 -933 2420000 -1876505 1199 782 53 290 0 0.00 0 1199
09/02/2016 866.59 543053 -442 2420000 -1876947 912 745 56 262 0 0.00 0 912
09/03/2016 866.37 541972 -1081 2420000 -1878028 1210 719 54 228 0 0.00 0 1210
09/04/2016 866.44 542316 344 2420000 -1877684 473 697 51 206 0 0.00 0 473
09/05/2016 866.14 540842 -1474 2420000 -1879158 1436 741 48 248 0 0.00 0 1436
09/06/2016 866.02 540252 -590 2420000 -1879748 1122 873 48 389 0 0.00 0 1122
09/07/2016 865.96 539959 -293 2420000 -1880041 822 731 57 239 0 0.00 0 822
09/08/2016 865.82 539275 -684 2420000 -1880725 1130 840 55 345 0 0.00 0 1130
09/09/2016 865.61 538248 -1027 2420000 -1881752 1260 799 57 307 0 0.00 0 1260
09/10/2016 865.51 537760 -488 2420000 -1882240 993 796 49 286 0 0.00 0 993
09/11/2016 865.35 536978 -782 2420000 -1883022 1108 768 54 275 0 0.00 0 1108
09/12/2016 865.32 536832 -146 2420000 -1883168 786 766 54 264 0 0.00 0 786
09/13/2016 865.23 536392 -440 2420000 -1883608 887 714 49 214 0 0.00 0 887
09/14/2016 865.32 536832 440 2420000 -1883168 442 703 39 333 0 0.00 0 442
09/15/2016 865.28 536636 -196 2410217 -1873581 754 694 39 382 0 0.00 0 754
09/16/2016 865.14 535952 -684 2400435 -1864483 888 587 44 285 0 0.00 0 888
09/17/2016 864.99 535219 -733 2390652 -1855433 926 603 47 285 0 0.00 0 926
09/18/2016 864.88 534685 -534 2380870 -1846184 878 659 50 348 0 0.00 0 878
09/19/2016 864.76 534102 -- 2371087 -1836985 1027 791 58 482 0 0.00 0 1027
09/20/2016 864.46 532645 -1457 2361304 -1828659 1370 695 60 371 0 0.00 0 1370
09/21/2016 864.19 531333 -1312 2351522 -1820189 1198 584 47 282 0 0.00 0 1198
09/22/2016 864.09 530847 -486 2341739 -1810892 781 563 27 247 0 0.01 0 781
09/23/2016 863.92 530023 -824 2331956 -1801934 931 550 34 240 0 0.01 0 931
09/24/2016 863.91 529975 -48 2322174 -1792199 576 586 34 276 0 0.01 0 576
09/25/2016 863.95 530168 193 2312391 -1782223 467 602 38 285 0 0.00 0 467
09/26/2016 -- -- -- -- -- -- -- -- -- -- -- -- --

Later | Latest

Warning! This data is preliminary and subject to revision.

Show NML Map | Plot NML Data | 1 Month NML Data | Real-Time NML Data | NML Info